Time;durP1;ratioP1;P1;durP2;ratioP2;P2;SDS_P1;SDS_P2;PMS_P1;PMS_P2;Temp;Humidity;BMP_temperature;BMP_pressure;BME280_temperature;BME280_humidity;BME280_pressure;Samples;Min_cycle;Max_cycle;Signal;HPM_P1;HPM_P2
2023/11/27 00:02:03;;;;;;;5.15;3.72;;;;;;;-0.57;100.00;92734.06;5068083;28;20053;-75
2023/11/27 00:04:30;;;;;;;5.90;3.53;;;;;;;-0.48;100.00;92739.91;5074956;28;20440;-74
2023/11/27 00:06:57;;;;;;;5.13;3.47;;;;;;;-0.47;100.00;92738.19;5072975;28;20054;-74
2023/11/27 00:09:24;;;;;;;8.40;3.90;;;;;;;-0.60;100.00;92731.81;5076511;28;20077;-74
2023/11/27 00:11:51;;;;;;;6.13;3.55;;;;;;;-0.54;100.00;92738.00;5071071;28;20498;-74
2023/11/27 00:14:19;;;;;;;7.07;4.10;;;;;;;-0.49;100.00;92747.63;5070670;28;20053;-74
2023/11/27 00:16:47;;;;;;;7.22;4.20;;;;;;;-0.60;100.00;92736.88;5070702;28;20828;-74
2023/11/27 00:19:14;;;;;;;8.43;4.20;;;;;;;-0.60;100.00;92754.53;5075108;28;20150;-74
2023/11/27 00:21:41;;;;;;;6.88;3.92;;;;;;;-0.57;100.00;92750.91;5070808;28;20055;-74
2023/11/27 00:24:08;;;;;;;5.53;3.10;;;;;;;-0.60;100.00;92748.72;5073514;28;20048;-74
2023/11/27 00:26:34;;;;;;;4.90;2.90;;;;;;;-0.44;100.00;92755.53;5083328;28;20139;-74
2023/11/27 00:29:01;;;;;;;7.82;5.43;;;;;;;-0.58;100.00;92752.66;5073717;28;20564;-74
2023/11/27 00:31:31;;;;;;;8.57;4.93;;;;;;;-0.62;100.00;92755.63;5070451;28;20162;-74
2023/11/27 00:33:58;;;;;;;4.95;3.42;;;;;;;-0.85;100.00;92762.00;5073280;28;20062;-74
2023/11/27 00:36:25;;;;;;;4.63;2.90;;;;;;;-0.65;100.00;92766.81;5073609;28;20981;-74
2023/11/27 00:38:52;;;;;;;4.30;2.67;;;;;;;-0.70;100.00;92756.38;5077919;28;20062;-74
2023/11/27 00:41:19;;;;;;;5.78;2.92;;;;;;;-0.57;100.00;92766.06;5069036;28;20058;-74
2023/11/27 00:43:46;;;;;;;4.18;2.22;;;;;;;-0.58;100.00;92762.75;5078233;28;20418;-75
2023/11/27 00:46:14;;;;;;;5.15;2.72;;;;;;;-0.57;100.00;92758.47;5071723;28;20055;-75
2023/11/27 00:48:43;;;;;;;3.63;2.40;;;;;;;-0.51;100.00;92762.13;5072364;28;20425;-75
2023/11/27 00:51:10;;;;;;;5.05;2.75;;;;;;;-0.59;100.00;92757.84;5071121;28;20048;-74
2023/11/27 00:53:37;;;;;;;7.13;3.28;;;;;;;-0.56;100.00;92770.94;5069744;28;20052;-74
2023/11/27 00:56:05;;;;;;;6.53;3.38;;;;;;;-0.55;100.00;92779.31;5072831;28;20129;-74
2023/11/27 00:58:32;;;;;;;5.30;3.08;;;;;;;-0.53;100.00;92782.47;5076695;28;20044;-74
2023/11/27 01:00:59;;;;;;;5.20;3.25;;;;;;;-0.48;100.00;92782.81;5070746;28;20395;-73
2023/11/27 01:03:26;;;;;;;5.85;3.17;;;;;;;-0.55;100.00;92789.41;5071996;28;20055;-74
2023/11/27 01:05:55;;;;;;;5.97;3.67;;;;;;;-0.61;100.00;92787.50;5074099;28;20051;-74
2023/11/27 01:08:24;;;;;;;5.68;3.50;;;;;;;-0.69;100.00;92776.41;5075249;28;20157;-74
2023/11/27 01:10:51;;;;;;;6.30;3.65;;;;;;;-0.62;100.00;92783.38;5072314;28;20080;-74
2023/11/27 01:13:19;;;;;;;7.90;4.43;;;;;;;-0.92;100.00;92795.53;5074537;28;20048;-75
2023/11/27 01:15:46;;;;;;;6.72;4.18;;;;;;;-0.99;100.00;92786.06;5072822;28;20044;-74
2023/11/27 01:18:13;;;;;;;7.20;4.20;;;;;;;-0.84;100.00;92798.88;5077671;28;20048;-75
2023/11/27 01:20:42;;;;;;;5.80;4.05;;;;;;;-1.53;100.00;92804.59;5069175;28;20071;-74
2023/11/27 01:23:10;;;;;;;6.13;2.70;;;;;;;-1.56;99.04;92799.88;5075034;28;20053;-75
2023/11/27 01:25:37;;;;;;;4.05;2.90;;;;;;;-1.43;100.00;92801.22;5072008;28;20047;-75
2023/11/27 01:28:04;;;;;;;5.13;2.78;;;;;;;-1.58;100.00;92816.06;5070957;28;20056;-75
2023/11/27 01:30:32;;;;;;;4.78;3.25;;;;;;;-1.39;100.00;92812.59;5076522;28;20083;-75
2023/11/27 01:32:59;;;;;;;5.18;4.25;;;;;;;-1.13;100.00;92807.56;5075069;28;20151;-75
2023/11/27 01:35:26;;;;;;;4.10;2.80;;;;;;;-1.16;100.00;92804.56;5069740;28;20058;-74
2023/11/27 01:37:53;;;;;;;4.93;2.70;;;;;;;-1.09;100.00;92805.53;5070345;28;20147;-75
2023/11/27 01:40:21;;;;;;;3.80;2.63;;;;;;;-0.99;100.00;92801.19;5069973;28;20052;-75
2023/11/27 01:42:48;;;;;;;5.47;3.35;;;;;;;-0.99;100.00;92800.38;5070476;28;20045;-74
2023/11/27 01:45:16;;;;;;;5.65;3.53;;;;;;;-1.02;100.00;92800.69;5070708;28;20066;-74
2023/11/27 01:47:43;;;;;;;6.00;3.38;;;;;;;-1.01;100.00;92800.56;5069619;28;20060;-74
2023/11/27 01:50:11;;;;;;;5.82;3.80;;;;;;;-1.00;100.00;92799.59;5074825;28;20055;-74
2023/11/27 01:52:40;;;;;;;4.95;3.58;;;;;;;-1.09;100.00;92808.06;5068874;28;20052;-74
2023/11/27 01:55:08;;;;;;;9.18;4.70;;;;;;;-1.23;100.00;92810.19;5074580;28;20102;-74
2023/11/27 01:57:37;;;;;;;7.90;3.92;;;;;;;-1.24;100.00;92803.53;5070109;28;20082;-74
2023/11/27 02:00:06;;;;;;;6.80;4.75;;;;;;;-1.10;100.00;92809.78;5074429;28;20109;-74
2023/11/27 02:02:33;;;;;;;8.23;4.35;;;;;;;-1.09;100.00;92815.63;5071080;28;20098;-74
2023/11/27 02:04:59;;;;;;;7.72;5.30;;;;;;;-1.25;100.00;92781.03;5074729;28;20141;-74
2023/11/27 02:07:26;;;;;;;9.38;6.00;;;;;;;-0.87;100.00;92824.44;5074493;28;20056;-74
2023/11/27 02:09:53;;;;;;;10.38;6.60;;;;;;;-0.90;100.00;92817.16;5072969;28;20098;-74
2023/11/27 02:12:20;;;;;;;12.45;6.85;;;;;;;-0.81;100.00;92807.88;5073219;28;20433;-74
2023/11/27 02:14:50;;;;;;;11.02;6.60;;;;;;;-0.91;100.00;92802.16;5076388;28;20051;-74
2023/11/27 02:17:17;;;;;;;10.85;6.32;;;;;;;-0.73;100.00;92799.56;5078926;28;20151;-74
2023/11/27 02:19:44;;;;;;;7.75;5.80;;;;;;;-0.88;100.00;92804.41;5079490;28;20114;-75
2023/11/27 02:22:11;;;;;;;8.43;5.45;;;;;;;-0.85;100.00;92799.03;5072532;28;20053;-75
2023/11/27 02:24:39;;;;;;;8.18;5.20;;;;;;;-0.83;100.00;92794.66;5069837;28;20417;-75
2023/11/27 02:27:06;;;;;;;13.63;8.23;;;;;;;-0.85;100.00;92799.03;5072637;28;20063;-75
2023/11/27 02:29:33;;;;;;;18.13;11.30;;;;;;;-0.68;100.00;92793.13;5076262;28;20055;-75
2023/11/27 02:32:03;;;;;;;10.60;7.07;;;;;;;-0.64;100.00;92785.25;5069794;28;20053;-75
2023/11/27 02:34:30;;;;;;;16.00;8.38;;;;;;;-0.73;100.00;92789.50;5072673;28;20055;-75
2023/11/27 02:36:56;;;;;;;16.15;9.40;;;;;;;-0.68;100.00;92790.59;5075475;28;20985;-75
2023/11/27 02:39:24;;;;;;;14.55;9.35;;;;;;;-0.77;100.00;92791.53;5073195;28;20595;-75
2023/11/27 02:41:53;;;;;;;14.57;9.45;;;;;;;-0.71;100.00;92795.16;5069683;28;20580;-75
2023/11/27 02:44:20;;;;;;;11.52;8.68;;;;;;;-0.69;100.00;92781.47;5071323;28;20043;-76
2023/11/27 02:46:47;;;;;;;13.55;7.30;;;;;;;-0.65;100.00;92783.69;5071064;28;20524;-75
2023/11/27 02:49:14;;;;;;;7.75;4.80;;;;;;;-0.74;100.00;92783.63;5071915;28;20056;-76
2023/11/27 02:51:41;;;;;;;7.45;5.40;;;;;;;-0.78;100.00;92792.47;5071428;28;20048;-75
2023/11/27 02:54:10;;;;;;;8.75;5.78;;;;;;;-0.74;100.00;92793.72;5070227;28;20055;-75
2023/11/27 02:56:36;;;;;;;12.18;7.63;;;;;;;-0.81;100.00;92777.63;5071797;28;20080;-75
2023/11/27 02:59:05;;;;;;;12.13;7.60;;;;;;;-0.86;100.00;92794.94;5067497;28;20520;-75
2023/11/27 03:01:32;;;;;;;13.65;8.15;;;;;;;-0.78;100.00;92789.16;5068235;28;20052;-75
2023/11/27 03:03:59;;;;;;;10.75;7.00;;;;;;;-0.84;100.00;92793.03;5072823;28;20044;-75
2023/11/27 03:06:26;;;;;;;11.23;8.50;;;;;;;-0.76;100.00;92788.06;5077821;28;20304;-77
2023/11/27 03:08:53;;;;;;;10.93;7.70;;;;;;;-0.69;100.00;92790.78;5073273;28;20493;-77
2023/11/27 03:11:20;;;;;;;10.98;7.63;;;;;;;-0.87;100.00;92793.38;5072629;28;20143;-77
2023/11/27 03:13:47;;;;;;;11.05;7.47;;;;;;;-0.89;100.00;92777.59;5070362;28;20079;-75
2023/11/27 03:16:15;;;;;;;11.52;7.97;;;;;;;-0.70;100.00;92782.41;5073838;28;20063;-74
2023/11/27 03:18:42;;;;;;;9.35;7.18;;;;;;;-0.73;100.00;92789.50;5068085;28;20122;-74
2023/11/27 03:21:19;;;;;;;10.40;6.70;;;;;;;-0.74;100.00;92792.97;5071081;28;20559;-75
2023/11/27 03:23:47;;;;;;;12.95;8.50;;;;;;;-0.81;100.00;92811.22;5072637;28;20573;-74
2023/11/27 03:26:14;;;;;;;14.65;8.10;;;;;;;-0.66;100.00;92800.53;5069987;28;20496;-74
2023/11/27 03:28:41;;;;;;;11.00;7.47;;;;;;;-0.84;100.00;92808.19;5074482;28;20056;-74
2023/11/27 03:31:15;;;;;;;10.50;7.10;;;;;;;-1.30;100.00;92746.19;5075994;28;20513;-75
2023/11/27 03:33:43;;;;;;;8.48;4.80;;;;;;;-0.83;100.00;92823.16;5070477;28;20425;-75
2023/11/27 03:36:11;;;;;;;6.88;4.57;;;;;;;-0.94;100.00;92825.94;5068279;28;20050;-76
2023/11/27 03:38:38;;;;;;;19.35;11.20;;;;;;;-0.97;100.00;92811.91;5072550;28;20044;-76
2023/11/27 03:41:05;;;;;;;10.23;5.65;;;;;;;-1.11;100.00;92812.47;5070775;28;20048;-75
2023/11/27 03:43:32;;;;;;;13.45;9.20;;;;;;;-1.04;100.00;92821.00;5070139;28;20051;-75
2023/11/27 03:45:59;;;;;;;15.07;8.73;;;;;;;-1.05;100.00;92821.94;5073572;28;20051;-76
2023/11/27 03:48:26;;;;;;;11.60;7.65;;;;;;;-1.05;100.00;92813.59;5078860;28;20062;-75
2023/11/27 03:50:54;;;;;;;14.88;7.45;;;;;;;-1.17;100.00;92811.31;5073582;28;20048;-75
2023/11/27 03:53:21;;;;;;;11.40;7.10;;;;;;;-1.16;100.00;92815.41;5072303;28;20051;-76
2023/11/27 03:55:48;;;;;;;12.32;6.93;;;;;;;-0.98;100.00;92805.28;5076594;28;20054;-77
2023/11/27 03:58:15;;;;;;;7.10;4.20;;;;;;;-1.04;100.00;92802.56;5077968;28;20829;-77
2023/11/27 04:00:42;;;;;;;6.88;4.72;;;;;;;-1.08;100.00;92815.47;5074528;28;20048;-76
2023/11/27 04:03:09;;;;;;;5.13;3.42;;;;;;;-0.94;100.00;92813.34;5076303;28;20437;-76
2023/11/27 04:05:38;;;;;;;8.35;5.38;;;;;;;-1.04;100.00;92820.19;5076910;28;20036;-76
2023/11/27 04:08:07;;;;;;;8.63;5.30;;;;;;;-1.14;100.00;92813.53;5074128;28;20048;-76
2023/11/27 04:10:34;;;;;;;10.00;5.68;;;;;;;-1.19;100.00;92813.19;5081333;28;20048;-76
2023/11/27 04:13:01;;;;;;;8.63;4.78;;;;;;;-1.06;100.00;92817.06;5071856;28;20053;-77
2023/11/27 04:15:29;;;;;;;6.03;3.65;;;;;;;-1.11;100.00;92815.75;5073307;28;20050;-77
2023/11/27 04:17:56;;;;;;;7.35;4.63;;;;;;;-1.30;100.00;92778.16;5071649;28;20445;-77
2023/11/27 04:20:24;;;;;;;8.75;5.38;;;;;;;-0.96;100.00;92816.00;5075693;28;20139;-77
2023/11/27 04:22:51;;;;;;;8.48;5.43;;;;;;;-0.98;100.00;92824.66;5073862;28;20048;-77
2023/11/27 04:25:20;;;;;;;11.07;5.90;;;;;;;-0.99;100.00;92823.06;5073727;28;20059;-77
2023/11/27 04:27:47;;;;;;;10.15;6.00;;;;;;;-1.06;100.00;92825.41;5078873;28;20058;-77
2023/11/27 04:30:15;;;;;;;11.25;6.88;;;;;;;-0.99;100.00;92828.13;5071572;28;20044;-77
2023/11/27 04:32:43;;;;;;;12.88;6.78;;;;;;;-1.14;100.00;92831.19;5073520;28;20052;-77
2023/11/27 04:35:11;;;;;;;13.20;8.15;;;;;;;-1.21;100.00;92827.66;5075275;28;20052;-77
2023/11/27 04:37:37;;;;;;;19.15;10.13;;;;;;;-1.56;100.00;92781.44;5075365;28;20063;-77
2023/11/27 04:40:09;;;;;;;13.23;7.45;;;;;;;-1.04;100.00;92833.59;5071078;28;20225;-77
2023/11/27 04:42:38;;;;;;;13.07;8.50;;;;;;;-1.12;100.00;92836.88;5075365;28;20101;-77
2023/11/27 04:45:06;;;;;;;11.00;7.80;;;;;;;-1.08;100.00;92833.13;5073210;28;20057;-77
2023/11/27 04:47:33;;;;;;;8.43;6.15;;;;;;;-1.14;100.00;92831.19;5072101;28;20052;-77
2023/11/27 04:50:00;;;;;;;6.07;4.65;;;;;;;-1.09;100.00;92841.63;5074627;28;20052;-77
2023/11/27 04:52:28;;;;;;;9.27;6.43;;;;;;;-1.06;100.00;92847.31;5071172;28;20059;-77
2023/11/27 04:54:55;;;;;;;12.13;8.10;;;;;;;-1.01;100.00;92848.44;5072617;28;20075;-77
2023/11/27 04:57:24;;;;;;;12.93;9.45;;;;;;;-1.04;100.00;92855.50;5074835;28;20040;-76
2023/11/27 04:59:52;;;;;;;10.75;6.18;;;;;;;-1.01;100.00;92858.53;5071063;28;20398;-77
2023/11/27 05:02:19;;;;;;;11.77;7.30;;;;;;;-1.01;100.00;92858.53;5075464;28;20093;-77
2023/11/27 05:04:46;;;;;;;15.82;8.90;;;;;;;-1.06;100.00;92875.84;5074504;28;20527;-77
2023/11/27 05:07:13;;;;;;;12.50;6.00;;;;;;;-1.01;100.00;92877.91;5078102;28;20048;-77
2023/11/27 05:09:40;;;;;;;13.07;7.00;;;;;;;-0.87;100.00;92881.63;5073832;28;20049;-77
2023/11/27 05:12:09;;;;;;;20.75;11.20;;;;;;;-0.86;100.00;92886.53;5074932;28;20048;-77
2023/11/27 05:14:35;;;;;;;31.30;14.63;;;;;;;-0.76;100.00;92883.91;5072904;28;20055;-77
2023/11/27 05:17:04;;;;;;;16.02;9.35;;;;;;;-0.72;100.00;92889.44;5071933;28;20055;-77
2023/11/27 05:19:31;;;;;;;22.25;12.57;;;;;;;-0.77;100.00;92891.59;5078981;28;20505;-77
2023/11/27 05:21:58;;;;;;;39.20;18.27;;;;;;;-0.77;100.00;92892.41;5077365;28;20048;-77
2023/11/27 05:24:25;;;;;;;167.80;70.57;;;;;;;-0.83;100.00;92890.47;5076644;28;20058;-77
2023/11/27 05:26:52;;;;;;;34.70;15.93;;;;;;;-0.69;100.00;92896.72;5078771;28;20074;-77
2023/11/27 05:29:18;;;;;;;13.02;7.35;;;;;;;-0.97;100.00;92896.84;5075718;28;20052;-77
2023/11/27 05:31:46;;;;;;;11.40;7.65;;;;;;;-1.24;100.00;92894.25;5071781;28;20105;-77
2023/11/27 05:34:14;;;;;;;10.65;6.47;;;;;;;-1.40;100.00;92876.50;5072477;28;20532;-77
2023/11/27 05:36:41;;;;;;;25.40;12.98;;;;;;;-1.29;100.00;92900.69;5070895;28;20098;-77
2023/11/27 05:39:10;;;;;;;32.83;16.23;;;;;;;-1.11;100.00;92913.28;5075403;28;20040;-77
2023/11/27 05:41:37;;;;;;;48.55;24.75;;;;;;;-1.04;100.00;92924.38;5069933;28;20044;-77
2023/11/27 05:44:06;;;;;;;20.48;10.50;;;;;;;-1.16;100.00;92903.63;5069845;28;20043;-77
2023/11/27 05:46:33;;;;;;;19.40;9.90;;;;;;;-1.08;100.00;92923.06;5074823;28;20713;-77
2023/11/27 05:49:00;;;;;;;58.70;26.98;;;;;;;-1.10;100.00;92927.47;5069388;28;20589;-78
2023/11/27 05:51:28;;;;;;;50.40;26.40;;;;;;;-0.96;100.00;92937.03;5069312;28;20052;-77
2023/11/27 05:53:56;;;;;;;35.97;16.30;;;;;;;-1.00;100.00;92937.47;5072381;28;20450;-78
2023/11/27 05:56:23;;;;;;;14.90;8.65;;;;;;;-1.10;100.00;92945.13;5070647;28;20079;-78
2023/11/27 05:58:50;;;;;;;17.80;9.52;;;;;;;-1.23;100.00;92951.31;5075047;28;20058;-77
2023/11/27 06:01:17;;;;;;;19.73;11.98;;;;;;;-1.10;100.00;92955.19;5080739;28;20058;-77
2023/11/27 06:03:44;;;;;;;20.08;10.35;;;;;;;-1.17;100.00;92960.03;5074737;28;20051;-78
2023/11/27 06:06:13;;;;;;;17.45;9.60;;;;;;;-1.15;100.00;92958.13;5069597;28;20097;-78
2023/11/27 06:08:43;;;;;;;18.45;11.48;;;;;;;-1.14;100.00;92956.41;5074350;28;20052;-78
2023/11/27 06:11:10;;;;;;;18.35;10.43;;;;;;;-1.07;100.00;92957.41;5071915;28;20083;-78
2023/11/27 06:13:37;;;;;;;15.82;10.65;;;;;;;-1.03;100.00;92951.16;5069918;28;20514;-78
2023/11/27 06:16:05;;;;;;;10.50;5.93;;;;;;;-1.04;100.00;92954.63;5072517;28;20052;-78
2023/11/27 06:18:32;;;;;;;8.52;4.55;;;;;;;-1.11;100.00;92951.88;5072315;28;20143;-78
2023/11/27 06:21:02;;;;;;;9.02;3.97;;;;;;;-1.17;100.00;92949.94;5072127;28;20102;-78
2023/11/27 06:23:28;;;;;;;7.30;4.20;;;;;;;-1.20;100.00;92942.69;5073841;28;20040;-78
2023/11/27 06:25:58;;;;;;;6.03;5.13;;;;;;;-1.48;100.00;92907.47;5071790;28;20434;-78
2023/11/27 06:28:24;;;;;;;6.55;4.90;;;;;;;-1.37;100.00;92956.84;5067123;28;20058;-77
2023/11/27 06:30:51;;;;;;;6.35;5.05;;;;;;;-1.38;100.00;92951.00;5071650;28;20501;-78
2023/11/27 06:33:19;;;;;;;7.75;4.88;;;;;;;-1.31;100.00;92963.81;5068482;28;20050;-77
2023/11/27 06:35:46;;;;;;;13.13;8.15;;;;;;;-1.26;100.00;92969.22;5070016;28;20410;-77
2023/11/27 06:38:13;;;;;;;32.38;18.52;;;;;;;-1.28;100.00;92970.31;5069675;28;20513;-78
2023/11/27 06:40:40;;;;;;;44.30;23.95;;;;;;;-1.36;100.00;92976.88;5078521;28;20051;-78
2023/11/27 06:43:10;;;;;;;24.35;13.93;;;;;;;-1.44;100.00;92976.78;5070916;28;20494;-78
2023/11/27 06:45:37;;;;;;;25.70;15.75;;;;;;;-1.50;100.00;92974.81;5075171;28;20052;-78
2023/11/27 06:48:04;;;;;;;17.80;11.35;;;;;;;-1.57;100.00;92979.63;5071313;28;20048;-78
2023/11/27 06:50:31;;;;;;;28.00;17.20;;;;;;;-1.62;100.00;92982.56;5069190;28;20486;-78
2023/11/27 06:52:58;;;;;;;25.02;14.63;;;;;;;-1.50;100.00;92984.91;5078024;28;20048;-78
2023/11/27 06:55:25;;;;;;;30.73;19.17;;;;;;;-1.56;100.00;92986.28;5070148;28;20040;-78
2023/11/27 06:57:54;;;;;;;29.67;18.85;;;;;;;-1.58;100.00;92990.63;5079823;28;20136;-78
2023/11/27 07:00:23;;;;;;;20.98;12.32;;;;;;;-1.61;100.00;92999.25;5078658;28;20394;-78
2023/11/27 07:02:50;;;;;;;15.90;8.02;;;;;;;-1.58;100.00;92994.91;5071924;28;20461;-77
2023/11/27 07:05:18;;;;;;;9.82;6.25;;;;;;;-1.72;100.00;93004.50;5067834;28;20080;-78
2023/11/27 07:07:45;;;;;;;8.98;6.10;;;;;;;-1.70;100.00;93002.66;5082245;28;20410;-78
2023/11/27 07:10:13;;;;;;;9.32;4.93;;;;;;;-1.76;100.00;93006.50;5076593;28;20052;-78
2023/11/27 07:12:40;;;;;;;5.90;3.70;;;;;;;-1.91;100.00;93001.13;5071652;28;20200;-79
2023/11/27 07:15:10;;;;;;;4.88;3.75;;;;;;;-2.01;100.00;92972.69;5068364;28;20448;-79
2023/11/27 07:17:38;;;;;;;3.88;2.90;;;;;;;-1.65;100.00;93002.22;5074316;28;20052;-78
2023/11/27 07:20:06;;;;;;;5.53;3.35;;;;;;;-1.59;100.00;93008.44;5077299;28;20055;-78
2023/11/27 07:22:34;;;;;;;7.28;4.63;;;;;;;-1.50;100.00;93002.53;5076116;28;20053;-78
2023/11/27 07:25:01;;;;;;;7.00;4.47;;;;;;;-1.44;100.00;92999.44;5067440;28;20050;-78
2023/11/27 07:27:28;;;;;;;8.27;5.45;;;;;;;-1.43;100.00;93000.25;5067992;28;20128;-78
2023/11/27 07:29:55;;;;;;;9.02;6.30;;;;;;;-1.25;100.00;93007.84;5067819;28;20518;-79
2023/11/27 07:32:22;;;;;;;16.05;10.48;;;;;;;-1.14;100.00;93015.19;5067788;28;20041;-79
2023/11/27 07:34:50;;;;;;;14.93;9.35;;;;;;;-0.95;100.00;93003.38;5072053;28;20048;-79
2023/11/27 07:37:17;;;;;;;14.23;10.13;;;;;;;-0.81;100.00;93012.97;5078663;28;20054;-78
2023/11/27 07:39:44;;;;;;;19.60;12.55;;;;;;;-0.64;100.00;93015.63;5071699;28;20294;-79
2023/11/27 07:42:14;;;;;;;30.45;18.40;;;;;;;-0.54;100.00;93005.44;5067858;28;20052;-78
2023/11/27 07:44:43;;;;;;;21.38;11.82;;;;;;;-0.37;100.00;93018.16;5068097;28;20135;-78
2023/11/27 07:47:10;;;;;;;25.65;14.73;;;;;;;-0.35;100.00;93009.50;5070816;28;20122;-78
2023/11/27 07:49:37;;;;;;;29.00;14.73;;;;;;;-0.19;100.00;93018.13;5069373;28;20052;-78
2023/11/27 07:52:06;;;;;;;19.15;11.32;;;;;;;-0.03;100.00;93010.66;5067413;28;20052;-79
2023/11/27 07:54:33;;;;;;;18.30;10.90;;;;;;;-0.24;100.00;93016.03;5067239;28;20040;-80
2023/11/27 07:57:00;;;;;;;18.20;10.50;;;;;;;-0.10;100.00;93013.94;5069627;28;20059;-79
2023/11/27 07:59:27;;;;;;;33.88;17.05;;;;;;;-0.07;100.00;93016.13;5079170;28;20050;-79
2023/11/27 08:01:53;;;;;;;28.73;13.82;;;;;;;-0.07;100.00;92989.16;5075804;28;20455;-79
2023/11/27 08:04:20;;;;;;;33.90;19.98;;;;;;;0.18;99.83;93028.91;5066950;28;20048;-79
2023/11/27 08:06:49;;;;;;;28.75;16.33;;;;;;;0.34;100.00;93023.13;5067579;28;20059;-79
2023/11/27 08:09:18;;;;;;;26.65;14.02;;;;;;;0.41;100.00;93020.78;5071031;28;20060;-80
2023/11/27 08:11:45;;;;;;;26.25;15.13;;;;;;;0.56;100.00;93021.81;5067610;28;20040;-79
2023/11/27 08:14:13;;;;;;;20.05;11.43;;;;;;;0.50;97.71;93022.38;5071697;28;20540;-80
2023/11/27 08:16:40;;;;;;;17.98;9.50;;;;;;;0.61;99.12;93021.34;5069504;28;20055;-79
2023/11/27 08:19:09;;;;;;;23.42;12.90;;;;;;;0.75;98.24;93025.78;5067365;28;20043;-83
2023/11/27 08:21:36;;;;;;;23.77;11.98;;;;;;;0.82;98.27;93020.13;5071751;28;20047;-78
2023/11/27 08:24:04;;;;;;;15.93;9.10;;;;;;;0.89;98.76;93011.75;5071860;28;20055;-79
2023/11/27 08:26:39;;;;;;;10.93;7.53;;;;;;;0.85;97.91;93012.22;5077873;28;20155;-79
2023/11/27 08:29:07;;;;;;;12.05;8.18;;;;;;;0.76;98.46;92992.00;5071460;28;20468;-80
2023/11/27 08:31:33;;;;;;;14.30;9.32;;;;;;;0.80;98.33;92997.53;5075631;28;20398;-80
2023/11/27 08:34:00;;;;;;;8.57;6.30;;;;;;;0.89;97.05;93005.91;5079325;28;20054;-79
2023/11/27 08:36:27;;;;;;;10.50;6.55;;;;;;;1.01;95.82;93016.50;5073324;28;20052;-80
2023/11/27 08:38:55;;;;;;;8.27;5.70;;;;;;;1.00;95.70;93022.53;5075161;28;20494;-80
2023/11/27 08:41:22;;;;;;;12.38;6.45;;;;;;;1.10;97.05;93023.19;5073666;28;20045;-81
2023/11/27 08:43:50;;;;;;;7.18;4.88;;;;;;;1.04;96.35;93021.28;5070513;28;20052;-81
2023/11/27 08:46:19;;;;;;;21.58;13.88;;;;;;;1.18;94.84;93022.41;5075889;28;20551;-81
2023/11/27 08:48:46;;;;;;;16.05;9.10;;;;;;;1.32;95.55;93029.38;5073924;28;20910;-82
2023/11/27 08:51:12;;;;;;;22.48;14.70;;;;;;;1.33;96.57;93025.91;5074820;28;20040;-82
2023/11/27 08:53:40;;;;;;;25.55;16.08;;;;;;;1.45;95.88;93033.94;5085660;28;20428;-82
2023/11/27 08:56:11;;;;;;;33.60;21.30;;;;;;;1.52;96.05;93025.75;5081138;28;20052;-82
2023/11/27 08:58:38;;;;;;;37.90;21.45;;;;;;;1.64;96.46;93033.81;5072727;28;20049;-82
2023/11/27 09:01:08;;;;;;;29.38;15.98;;;;;;;1.58;95.99;93037.78;5074759;28;20044;-82
2023/11/27 09:03:35;;;;;;;14.70;9.45;;;;;;;1.59;94.78;93031.75;5072063;28;20056;-81
2023/11/27 09:06:02;;;;;;;25.45;15.55;;;;;;;1.59;94.78;93034.28;5073404;28;20074;-80
2023/11/27 09:08:29;;;;;;;11.73;8.63;;;;;;;1.58;95.14;93022.59;5072534;28;20537;-82
2023/11/27 09:10:56;;;;;;;9.38;6.47;;;;;;;1.41;94.51;92999.81;5071696;28;20071;-82
2023/11/27 09:13:23;;;;;;;7.55;5.10;;;;;;;1.45;96.76;93002.81;5070332;28;20592;-81
2023/11/27 09:15:50;;;;;;;9.20;5.80;;;;;;;1.56;96.61;93014.34;5071529;28;20072;-82
2023/11/27 09:18:18;;;;;;;11.57;7.15;;;;;;;1.56;94.53;93010.06;5072009;28;20087;-81
2023/11/27 09:20:46;;;;;;;11.77;8.38;;;;;;;1.59;94.93;93006.44;5076561;28;20051;-81
2023/11/27 09:23:13;;;;;;;12.63;8.70;;;;;;;1.62;94.10;93013.69;5069900;28;20152;-81
2023/11/27 09:25:40;;;;;;;10.73;5.47;;;;;;;1.53;94.48;93004.53;5071021;28;20151;-81
2023/11/27 09:28:08;;;;;;;7.78;4.78;;;;;;;1.55;94.22;93015.28;5073176;28;20831;-80
2023/11/27 09:30:35;;;;;;;9.85;5.00;;;;;;;1.54;91.59;93017.06;5073044;28;20058;-80
2023/11/27 09:33:04;;;;;;;12.00;5.38;;;;;;;1.44;92.08;93008.81;5076238;28;20442;-82
2023/11/27 09:35:32;;;;;;;6.55;4.90;;;;;;;1.42;93.14;93010.69;5080628;28;20079;-82
2023/11/27 09:38:00;;;;;;;4.82;2.58;;;;;;;1.24;91.63;93004.06;5074228;28;20055;-82
2023/11/27 09:40:28;;;;;;;4.82;2.50;;;;;;;1.37;93.51;93008.66;5084500;28;20075;-81
2023/11/27 09:42:55;;;;;;;6.38;3.42;;;;;;;1.28;95.47;92976.69;5084567;28;20044;-81
2023/11/27 09:45:22;;;;;;;6.97;4.28;;;;;;;1.45;94.19;93001.03;5079748;28;20094;-81
2023/11/27 09:47:50;;;;;;;5.35;2.67;;;;;;;1.30;93.69;93003.44;5076199;28;20176;-82
2023/11/27 09:50:19;;;;;;;5.40;3.35;;;;;;;1.32;92.43;92980.50;5073561;28;20432;-81
2023/11/27 09:52:53;;;;;;;5.35;3.42;;;;;;;1.32;94.67;92966.13;5069043;28;20048;-81
2023/11/27 09:55:21;;;;;;;4.88;2.38;;;;;;;1.34;92.25;92996.31;5075952;28;20970;-82
2023/11/27 09:57:49;;;;;;;4.10;2.45;;;;;;;1.32;94.47;92993.94;5073449;28;20048;-82
2023/11/27 10:00:19;;;;;;;8.35;3.05;;;;;;;1.28;94.08;92989.34;5071402;28;20056;-82
2023/11/27 10:02:48;;;;;;;3.83;1.90;;;;;;;1.13;93.21;92979.88;5071030;28;20048;-81
2023/11/27 10:05:18;;;;;;;10.63;3.78;;;;;;;1.15;92.22;92987.31;5069377;28;20058;-82
2023/11/27 10:07:49;;;;;;;6.32;4.22;;;;;;;1.18;93.77;92967.53;5070190;28;20056;-82
2023/11/27 10:10:24;;;;;;;4.85;3.40;;;;;;;1.30;94.74;92983.19;5069172;28;20567;-82
2023/11/27 10:12:51;;;;;;;4.60;3.57;;;;;;;1.22;93.80;92957.09;5068384;28;20491;-82
2023/11/27 10:15:18;;;;;;;6.38;3.78;;;;;;;1.35;91.90;92990.31;5068335;28;20054;-82
2023/11/27 10:17:47;;;;;;;6.32;3.05;;;;;;;1.26;92.13;92976.88;5071359;28;20056;-82
2023/11/27 10:20:18;;;;;;;5.40;2.72;;;;;;;1.41;93.78;92984.63;5080979;28;20055;-82
2023/11/27 10:22:45;;;;;;;5.82;3.53;;;;;;;1.40;95.32;92972.91;5067774;28;20397;-82
2023/11/27 10:25:14;;;;;;;4.72;3.20;;;;;;;1.24;93.40;92963.56;5068693;28;20379;-82
2023/11/27 10:27:43;;;;;;;5.32;2.75;;;;;;;1.13;93.94;92954.56;5072130;28;20543;-82
2023/11/27 10:30:20;;;;;;;7.10;3.08;;;;;;;1.19;95.41;92973.38;5072135;28;20517;-81
2023/11/27 10:32:46;;;;;;;4.40;2.63;;;;;;;1.24;93.98;92971.16;5068558;28;20456;-82
2023/11/27 10:35:13;;;;;;;;;;;;;;;1.19;93.61;92969.13;5070353;28;20506;-82
2023/11/27 10:37:42;;;;;;;2.90;2.10;;;;;;;1.13;93.75;92967.22;5067634;28;19920;-82
2023/11/27 10:40:14;;;;;;;5.18;3.25;;;;;;;1.05;93.72;92957.88;5067320;28;20090;-81
2023/11/27 10:42:47;;;;;;;5.90;2.78;;;;;;;1.07;94.74;92957.72;5068332;28;20322;-81
2023/11/27 10:45:17;;;;;;;5.15;3.20;;;;;;;1.15;94.22;92967.06;5072077;28;20123;-81
2023/11/27 10:47:46;;;;;;;5.22;3.10;;;;;;;1.06;94.86;92938.44;5067877;28;20425;-82
2023/11/27 10:50:15;;;;;;;5.65;3.28;;;;;;;1.23;92.17;92961.19;5067811;28;20056;-82
2023/11/27 10:52:44;;;;;;;5.63;3.53;;;;;;;1.31;94.06;92964.50;5067072;28;20517;-81
2023/11/27 10:55:14;;;;;;;10.38;4.95;;;;;;;1.28;93.67;92949.66;5069026;28;20098;-81
2023/11/27 10:57:44;;;;;;;6.07;2.90;;;;;;;1.25;93.60;92955.03;5076019;28;20401;-81
2023/11/27 11:00:14;;;;;;;6.25;2.05;;;;;;;1.26;93.92;92948.25;5067824;28;20052;-80
2023/11/27 11:02:48;;;;;;;11.63;6.45;;;;;;;1.19;91.89;92940.47;5075319;28;20098;-80
2023/11/27 11:05:26;;;;;;;34.90;17.08;;;;;;;1.28;92.42;92939.53;5071647;28;20041;-81
2023/11/27 11:07:55;;;;;;;17.98;9.35;;;;;;;1.26;93.63;92943.97;5068142;28;20055;-80
2023/11/27 11:10:26;;;;;;;18.08;8.40;;;;;;;1.24;93.77;92935.75;5067473;28;20041;-80
2023/11/27 11:12:58;;;;;;;17.38;9.45;;;;;;;1.27;93.44;92937.97;5082463;28;20059;-80
2023/11/27 11:15:35;;;;;;;17.42;9.00;;;;;;;1.37;94.41;92942.84;5067965;28;20055;-80
2023/11/27 11:18:10;;;;;;;11.13;6.78;;;;;;;1.39;95.51;92935.88;5070287;28;20048;-81
2023/11/27 11:20:52;;;;;;;7.30;3.95;;;;;;;1.56;93.61;92936.66;5067113;28;20055;-80
2023/11/27 11:23:28;;;;;;;10.82;5.53;;;;;;;1.31;94.38;92896.19;5069607;28;20661;-80
2023/11/27 11:26:32;;;;;;;16.80;9.30;;;;;;;1.53;93.59;92931.91;5067998;28;20041;-80
2023/11/27 11:29:11;;;;;;;13.50;7.88;;;;;;;1.48;95.42;92929.06;5085742;28;20121;-79